createdAt,value
2018-08-19T00:00:52.324Z,0.00
2018-08-19T00:01:52.453Z,0.00
2018-08-19T00:02:52.594Z,0.00
2018-08-19T00:03:52.737Z,0.00
2018-08-19T00:04:52.866Z,0.00
2018-08-19T00:05:53.038Z,0.00
2018-08-19T00:06:53.151Z,0.00
2018-08-19T00:07:53.294Z,0.00
2018-08-19T00:08:53.426Z,0.00
2018-08-19T00:09:53.575Z,0.00
2018-08-19T00:10:53.706Z,0.00
2018-08-19T00:11:53.846Z,0.00
2018-08-19T00:12:53.993Z,0.00
2018-08-19T00:13:54.131Z,0.00
2018-08-19T00:14:54.274Z,0.00
2018-08-19T00:15:54.412Z,0.00
2018-08-19T00:16:54.552Z,0.00
2018-08-19T00:17:54.689Z,0.00
2018-08-19T00:18:54.825Z,0.00
2018-08-19T00:19:54.966Z,0.00
2018-08-19T00:20:55.107Z,0.00
2018-08-19T00:21:55.247Z,0.00
2018-08-19T00:22:55.386Z,0.00
2018-08-19T00:23:55.523Z,0.00
2018-08-19T00:24:55.724Z,0.00
2018-08-19T00:25:55.749Z,0.00
2018-08-19T00:26:55.886Z,0.00
2018-08-19T00:27:56.033Z,0.00
2018-08-19T00:28:56.184Z,0.00
2018-08-19T00:29:56.334Z,0.00
2018-08-19T00:30:56.474Z,0.00
2018-08-19T00:31:56.612Z,0.00
2018-08-19T00:32:56.760Z,0.00
2018-08-19T00:33:56.888Z,0.00
2018-08-19T00:34:57.024Z,0.00
2018-08-19T00:35:57.163Z,0.00
2018-08-19T00:36:57.331Z,0.00
2018-08-19T00:37:57.463Z,0.00
2018-08-19T00:38:57.602Z,0.00
2018-08-19T00:39:57.737Z,0.00
2018-08-19T00:40:57.912Z,0.00
2018-08-19T00:41:58.054Z,0.00
2018-08-19T00:42:58.196Z,0.00
2018-08-19T00:43:58.369Z,0.00
2018-08-19T00:44:58.501Z,0.00
2018-08-19T00:45:58.658Z,0.00
2018-08-19T00:46:58.796Z,0.00
2018-08-19T00:47:58.932Z,0.00
2018-08-19T00:48:59.142Z,0.00
2018-08-19T00:49:59.195Z,0.00
2018-08-19T00:50:59.347Z,0.00
2018-08-19T00:51:59.490Z,0.00
2018-08-19T00:52:59.689Z,0.00
2018-08-19T00:53:59.797Z,0.00
2018-08-19T00:54:59.931Z,0.00
2018-08-19T00:56:00.066Z,0.00
2018-08-19T00:57:00.230Z,0.00
2018-08-19T00:58:00.362Z,0.00
2018-08-19T00:59:00.526Z,0.00
2018-08-19T01:00:00.659Z,0.00
2018-08-19T01:01:00.791Z,0.00
2018-08-19T01:02:00.934Z,0.00
2018-08-19T01:03:01.113Z,0.00
2018-08-19T01:04:01.244Z,0.00
2018-08-19T01:05:01.383Z,0.00
2018-08-19T01:06:01.546Z,0.00
2018-08-19T01:07:01.719Z,0.00
2018-08-19T01:08:01.837Z,0.00
2018-08-19T01:09:01.981Z,0.00
2018-08-19T01:10:02.115Z,0.00
2018-08-19T01:11:02.294Z,0.00
2018-08-19T01:12:02.426Z,0.00
2018-08-19T01:13:02.603Z,0.00
2018-08-19T01:14:02.735Z,0.00
2018-08-19T01:15:02.873Z,0.00
2018-08-19T01:16:03.019Z,0.00
2018-08-19T01:17:03.225Z,0.00
2018-08-19T01:18:03.348Z,0.00
2018-08-19T01:19:03.482Z,0.00
2018-08-19T01:20:03.623Z,0.00
2018-08-19T01:21:03.757Z,0.00
2018-08-19T01:22:03.895Z,0.00
2018-08-19T01:23:04.035Z,0.00
2018-08-19T01:24:04.173Z,0.00
2018-08-19T01:25:04.316Z,0.00
2018-08-19T01:26:04.456Z,0.00
2018-08-19T01:27:04.601Z,0.00
2018-08-19T01:28:04.738Z,0.00
2018-08-19T01:29:04.874Z,0.00
2018-08-19T01:30:05.018Z,0.00
2018-08-19T01:31:05.152Z,0.00
2018-08-19T01:32:05.299Z,0.00
2018-08-19T01:33:05.480Z,0.00
2018-08-19T01:34:05.632Z,0.00
2018-08-19T01:35:05.770Z,0.00
2018-08-19T01:36:05.912Z,0.00
2018-08-19T01:37:06.049Z,0.00
2018-08-19T01:38:06.188Z,0.00
2018-08-19T01:39:06.323Z,0.00
2018-08-19T01:40:06.462Z,0.00
2018-08-19T01:41:06.611Z,0.00
2018-08-19T01:42:06.748Z,0.00
2018-08-19T01:43:06.887Z,0.00
2018-08-19T01:44:07.028Z,0.00
2018-08-19T01:45:07.164Z,0.00
2018-08-19T01:46:07.304Z,0.00
2018-08-19T01:47:07.437Z,0.00
2018-08-19T01:48:07.578Z,0.00
2018-08-19T01:49:07.714Z,0.00
2018-08-19T01:50:07.853Z,0.00
2018-08-19T01:51:07.986Z,0.00
2018-08-19T01:52:08.127Z,0.00
2018-08-19T01:53:08.260Z,0.00
2018-08-19T01:54:08.407Z,0.00
2018-08-19T01:55:08.554Z,0.00
2018-08-19T01:56:08.693Z,0.00
2018-08-19T01:57:08.844Z,0.00
2018-08-19T01:58:08.971Z,0.00
2018-08-19T01:59:09.142Z,0.00
2018-08-19T02:00:09.296Z,0.00
2018-08-19T02:01:09.430Z,0.00
2018-08-19T02:02:09.573Z,0.00
2018-08-19T02:03:09.710Z,0.00
2018-08-19T02:04:09.845Z,0.00
2018-08-19T02:05:09.979Z,0.00
2018-08-19T02:06:10.140Z,0.00
2018-08-19T02:07:10.274Z,0.00
2018-08-19T02:08:10.409Z,0.00
2018-08-19T02:09:10.540Z,0.00
2018-08-19T02:10:10.720Z,0.00
2018-08-19T02:11:10.856Z,0.00
2018-08-19T02:12:10.988Z,0.00
2018-08-19T02:13:11.120Z,0.00
2018-08-19T02:14:11.263Z,0.00
2018-08-19T02:15:11.401Z,0.00
2018-08-19T02:16:11.541Z,0.00
2018-08-19T02:17:11.684Z,0.00
2018-08-19T02:18:11.819Z,0.00
2018-08-19T02:19:11.964Z,0.00
2018-08-19T02:20:12.119Z,0.00
2018-08-19T02:21:12.254Z,0.00
2018-08-19T02:22:12.386Z,0.00
2018-08-19T02:23:12.582Z,0.00
2018-08-19T02:24:12.759Z,0.00
2018-08-19T02:25:12.851Z,0.00
2018-08-19T02:26:13.029Z,0.00
2018-08-19T02:27:13.294Z,0.00
2018-08-19T02:28:13.426Z,0.00
2018-08-19T02:29:13.524Z,0.00
2018-08-19T02:30:13.658Z,0.00
2018-08-19T02:31:13.827Z,0.00
2018-08-19T02:32:13.966Z,0.00
2018-08-19T02:33:14.098Z,0.00
2018-08-19T02:34:14.265Z,0.00
2018-08-19T02:35:14.394Z,0.00
2018-08-19T02:36:14.533Z,0.00
2018-08-19T02:37:14.670Z,0.00
2018-08-19T02:38:14.814Z,0.00
2018-08-19T02:39:14.960Z,0.00
2018-08-19T02:40:15.096Z,0.00
2018-08-19T02:41:15.238Z,0.00
2018-08-19T02:42:15.376Z,0.00
2018-08-19T02:43:15.520Z,0.00
2018-08-19T02:44:15.661Z,0.00
2018-08-19T02:45:15.794Z,0.00
2018-08-19T02:46:15.931Z,0.00
2018-08-19T02:47:16.072Z,0.00
2018-08-19T02:48:16.208Z,0.00
2018-08-19T02:49:16.345Z,0.00
2018-08-19T02:50:16.481Z,0.00
2018-08-19T02:51:16.612Z,0.00
2018-08-19T02:52:16.753Z,0.00
2018-08-19T02:53:16.900Z,0.00
2018-08-19T02:54:17.029Z,0.00
2018-08-19T02:55:17.165Z,0.00
2018-08-19T02:56:17.302Z,0.00
2018-08-19T02:57:17.446Z,0.00
2018-08-19T02:58:17.609Z,0.00
2018-08-19T02:59:17.741Z,0.00
2018-08-19T03:00:17.878Z,0.00
2018-08-19T03:01:18.017Z,0.00
2018-08-19T03:02:18.161Z,0.00
2018-08-19T03:03:18.289Z,0.00
2018-08-19T03:04:18.425Z,0.00
2018-08-19T03:05:18.575Z,0.00
2018-08-19T03:06:18.709Z,0.00
2018-08-19T03:07:18.860Z,0.00
2018-08-19T03:08:18.993Z,0.00
2018-08-19T03:09:19.135Z,0.00
2018-08-19T03:10:19.291Z,0.00
2018-08-19T03:11:19.429Z,0.00
2018-08-19T03:12:19.565Z,0.00
2018-08-19T03:13:19.720Z,0.00
2018-08-19T03:14:19.950Z,0.00
2018-08-19T03:15:19.993Z,0.00
2018-08-19T03:16:20.067Z,0.00
2018-08-19T03:17:20.242Z,0.00
2018-08-19T03:18:20.369Z,0.00
2018-08-19T03:19:20.507Z,0.00
2018-08-19T03:20:20.653Z,0.00
2018-08-19T03:21:20.787Z,0.00
2018-08-19T03:22:20.950Z,0.00
2018-08-19T03:23:21.082Z,0.00
2018-08-19T03:24:21.228Z,0.00
2018-08-19T03:25:21.362Z,0.00
2018-08-19T03:26:21.497Z,0.00
2018-08-19T03:27:21.639Z,0.00
2018-08-19T03:28:21.781Z,0.00
2018-08-19T03:29:21.919Z,0.00
2018-08-19T03:30:22.058Z,0.00
2018-08-19T03:31:22.194Z,0.00
2018-08-19T03:32:22.338Z,0.00
2018-08-19T03:33:22.474Z,0.00
2018-08-19T03:34:22.608Z,0.00
2018-08-19T03:35:22.754Z,0.00
2018-08-19T03:36:22.892Z,0.00
2018-08-19T03:37:23.026Z,0.00
2018-08-19T03:38:23.159Z,0.00
2018-08-19T03:39:23.298Z,0.00
2018-08-19T03:40:23.437Z,0.00
2018-08-19T03:41:23.569Z,0.00
2018-08-19T03:42:23.710Z,0.00
2018-08-19T03:43:23.844Z,0.00
2018-08-19T03:44:23.979Z,0.00
2018-08-19T03:45:24.120Z,0.00
2018-08-19T03:46:24.250Z,0.00
2018-08-19T03:47:24.387Z,0.00
2018-08-19T03:48:24.525Z,0.00
2018-08-19T03:49:24.662Z,4.00
2018-08-19T03:50:24.822Z,4.00
2018-08-19T03:51:24.961Z,4.00
2018-08-19T03:52:25.097Z,0.00
2018-08-19T03:53:25.263Z,4.00
2018-08-19T03:54:25.398Z,4.00
2018-08-19T03:55:25.531Z,4.00
2018-08-19T03:56:25.674Z,8.00
2018-08-19T03:57:25.835Z,4.00
2018-08-19T03:58:25.965Z,8.00
2018-08-19T03:59:26.099Z,12.00
2018-08-19T04:00:26.238Z,12.00
2018-08-19T04:01:26.375Z,16.00
2018-08-19T04:02:26.513Z,16.00
2018-08-19T04:03:26.648Z,16.00
2018-08-19T04:04:26.780Z,20.00
2018-08-19T04:05:26.939Z,28.00
2018-08-19T04:06:27.062Z,28.00
2018-08-19T04:07:27.200Z,32.00
2018-08-19T04:08:27.337Z,36.00
2018-08-19T04:09:27.562Z,40.00
2018-08-19T04:10:27.572Z,48.00
2018-08-19T04:11:27.713Z,52.00
2018-08-19T04:12:27.848Z,56.00
2018-08-19T04:13:27.999Z,64.00
2018-08-19T04:14:28.131Z,72.00
2018-08-19T04:15:28.265Z,80.00
2018-08-19T04:16:28.433Z,88.00
2018-08-19T04:17:28.558Z,96.00
2018-08-19T04:18:28.692Z,104.00
2018-08-19T04:19:28.832Z,116.00
2018-08-19T04:20:28.997Z,124.00
2018-08-19T04:21:29.129Z,136.00
2018-08-19T04:22:29.269Z,148.00
2018-08-19T04:23:29.403Z,164.00
2018-08-19T04:24:29.564Z,172.00
2018-08-19T04:25:29.693Z,184.00
2018-08-19T04:26:29.829Z,200.00
2018-08-19T04:27:29.986Z,216.00
2018-08-19T04:28:30.106Z,228.00
2018-08-19T04:29:30.243Z,244.00
2018-08-19T04:30:30.383Z,256.00
2018-08-19T04:31:30.553Z,268.00
2018-08-19T04:32:30.708Z,284.00
2018-08-19T04:33:30.827Z,300.00
2018-08-19T04:34:30.962Z,312.00
2018-08-19T04:35:31.096Z,328.00
2018-08-19T04:36:31.237Z,344.00
2018-08-19T04:37:31.370Z,356.00
2018-08-19T04:38:31.526Z,368.00
2018-08-19T04:39:31.661Z,384.00
2018-08-19T04:40:31.799Z,404.00
2018-08-19T04:41:31.932Z,416.00
2018-08-19T04:42:32.075Z,428.00
2018-08-19T04:43:32.207Z,444.00
2018-08-19T04:44:32.339Z,460.00
2018-08-19T04:45:32.474Z,472.00
2018-08-19T04:46:32.611Z,488.00
2018-08-19T04:47:32.753Z,504.00
2018-08-19T04:48:32.886Z,516.00
2018-08-19T04:49:33.025Z,532.00
2018-08-19T04:50:33.179Z,548.00
2018-08-19T04:51:33.310Z,556.00
2018-08-19T04:52:33.443Z,572.00
2018-08-19T04:53:34.458Z,584.00
2018-08-19T04:54:33.767Z,600.00
2018-08-19T04:55:33.898Z,612.00
2018-08-19T04:56:34.052Z,628.00
2018-08-19T04:57:34.180Z,640.00
2018-08-19T04:58:34.316Z,652.00
2018-08-19T04:59:34.453Z,668.00
2018-08-19T05:00:34.584Z,676.00
2018-08-19T05:01:34.724Z,688.00
2018-08-19T05:02:34.948Z,700.00
2018-08-19T05:03:35.000Z,716.00
2018-08-19T05:04:35.130Z,728.00
2018-08-19T05:05:35.266Z,740.00
2018-08-19T05:06:35.400Z,752.00
2018-08-19T05:07:35.536Z,768.00
2018-08-19T05:08:35.671Z,776.00
2018-08-19T05:09:35.809Z,792.00
2018-08-19T05:10:35.952Z,804.00
2018-08-19T05:11:36.105Z,816.00
2018-08-19T05:12:36.241Z,824.00
2018-08-19T05:13:36.379Z,840.00
2018-08-19T05:14:36.515Z,848.00
2018-08-19T05:15:36.810Z,864.00
2018-08-19T05:16:36.814Z,876.00
2018-08-19T05:17:36.960Z,884.00
2018-08-19T05:18:37.088Z,900.00
2018-08-19T05:19:37.232Z,908.00
2018-08-19T05:20:37.362Z,920.00
2018-08-19T05:21:37.500Z,932.00
2018-08-19T05:22:37.712Z,940.00
2018-08-19T05:23:37.771Z,948.00
2018-08-19T05:24:37.909Z,960.00
2018-08-19T05:25:38.042Z,964.00
2018-08-19T05:26:38.206Z,972.00
2018-08-19T05:27:38.342Z,984.00
2018-08-19T05:28:38.479Z,992.00
2018-08-19T05:29:38.621Z,1000.00
2018-08-19T05:30:38.766Z,1008.00
2018-08-19T05:31:38.977Z,1016.00
2018-08-19T05:32:39.037Z,1024.00
2018-08-19T05:33:39.180Z,1032.00
2018-08-19T05:34:39.332Z,1040.00
2018-08-19T05:35:39.463Z,1048.00
2018-08-19T05:36:39.607Z,1056.00
2018-08-19T05:37:40.469Z,1060.00
2018-08-19T05:38:39.935Z,1064.00
2018-08-19T05:39:40.082Z,1076.00
2018-08-19T05:40:40.209Z,1080.00
2018-08-19T05:41:40.346Z,1088.00
2018-08-19T05:42:40.483Z,1096.00
2018-08-19T05:43:40.640Z,1100.00
2018-08-19T05:44:40.779Z,1108.00
2018-08-19T05:45:40.921Z,1116.00
2018-08-19T05:46:41.056Z,1116.00
2018-08-19T05:47:41.187Z,1128.00
2018-08-19T05:48:41.322Z,1132.00
2018-08-19T05:49:41.454Z,1140.00
2018-08-19T05:50:41.590Z,1144.00
2018-08-19T05:51:41.759Z,1148.00
2018-08-19T05:52:41.863Z,1156.00
2018-08-19T05:53:42.033Z,1160.00
2018-08-19T05:54:42.162Z,1168.00
2018-08-19T05:55:42.367Z,1172.00
2018-08-19T05:56:42.439Z,1176.00
2018-08-19T05:57:42.574Z,1180.00
2018-08-19T05:58:42.721Z,1184.00
2018-08-19T05:59:42.859Z,1192.00
2018-08-19T06:00:42.998Z,1196.00
2018-08-19T06:01:43.135Z,1200.00
2018-08-19T06:02:43.271Z,1204.00
2018-08-19T06:03:43.415Z,1208.00
2018-08-19T06:04:43.550Z,1216.00
2018-08-19T06:05:43.690Z,1220.00
2018-08-19T06:06:43.831Z,1224.00
2018-08-19T06:07:44.062Z,1232.00
2018-08-19T06:08:44.103Z,1240.00
2018-08-19T06:09:44.244Z,1244.00
2018-08-19T06:10:44.390Z,1244.00
2018-08-19T06:11:44.529Z,1252.00
2018-08-19T06:12:44.659Z,1256.00
2018-08-19T06:13:44.807Z,1256.00
2018-08-19T06:14:44.941Z,1264.00
2018-08-19T06:15:45.152Z,1268.00
2018-08-19T06:16:45.220Z,1276.00
2018-08-19T06:17:45.358Z,1284.00
2018-08-19T06:18:45.514Z,1284.00
2018-08-19T06:19:45.644Z,1288.00
2018-08-19T06:20:45.784Z,1292.00
2018-08-19T06:21:46.742Z,1296.00
2018-08-19T06:22:46.028Z,1300.00
2018-08-19T06:23:46.169Z,1304.00
2018-08-19T06:24:46.409Z,1304.00
2018-08-19T06:25:46.447Z,1308.00
2018-08-19T06:26:46.584Z,1312.00
2018-08-19T06:27:46.721Z,1312.00
2018-08-19T06:28:46.858Z,1316.00
2018-08-19T06:29:47.000Z,1324.00
2018-08-19T06:30:47.131Z,1328.00
2018-08-19T06:31:47.299Z,1336.00
2018-08-19T06:32:47.442Z,1344.00
2018-08-19T06:33:47.576Z,1352.00
2018-08-19T06:34:47.774Z,1360.00
2018-08-19T06:35:47.868Z,1368.00
2018-08-19T06:36:47.998Z,1380.00
2018-08-19T06:37:48.139Z,1384.00
2018-08-19T06:38:48.300Z,1388.00
2018-08-19T06:39:48.413Z,1396.00
2018-08-19T06:40:48.554Z,1396.00
2018-08-19T06:41:48.692Z,1404.00
2018-08-19T06:42:48.830Z,1404.00
2018-08-19T06:43:48.967Z,1408.00
2018-08-19T06:44:49.112Z,1408.00
2018-08-19T06:45:49.264Z,1412.00
2018-08-19T06:46:49.399Z,1412.00
2018-08-19T06:47:49.538Z,1412.00
2018-08-19T06:48:49.671Z,1412.00
2018-08-19T06:49:49.825Z,1412.00
2018-08-19T06:50:49.962Z,1412.00
2018-08-19T06:51:50.099Z,1412.00
2018-08-19T06:52:50.242Z,1408.00
2018-08-19T06:53:50.375Z,1412.00
2018-08-19T06:54:50.520Z,1408.00
2018-08-19T06:55:50.671Z,1408.00
2018-08-19T06:56:50.810Z,1412.00
2018-08-19T06:57:50.950Z,1412.00
2018-08-19T06:58:51.083Z,1412.00
2018-08-19T06:59:51.249Z,1416.00
2018-08-19T07:00:51.385Z,1416.00
2018-08-19T07:01:51.521Z,1412.00
2018-08-19T07:02:51.765Z,1408.00
2018-08-19T07:03:51.792Z,1408.00
2018-08-19T07:04:51.917Z,1408.00
2018-08-19T07:05:52.747Z,1404.00
2018-08-19T07:06:52.179Z,1404.00
2018-08-19T07:07:52.314Z,1404.00
2018-08-19T07:08:52.452Z,1404.00
2018-08-19T07:09:52.592Z,1408.00
2018-08-19T07:10:52.739Z,1408.00
2018-08-19T07:11:52.874Z,1412.00
2018-08-19T07:12:53.012Z,1412.00
2018-08-19T07:13:53.150Z,1416.00
2018-08-19T07:14:53.287Z,1412.00
2018-08-19T07:15:53.428Z,1420.00
2018-08-19T07:16:53.565Z,1420.00
2018-08-19T07:17:53.699Z,1424.00
2018-08-19T07:18:53.844Z,1428.00
2018-08-19T07:19:53.975Z,1428.00
2018-08-19T07:20:54.115Z,1428.00
2018-08-19T07:21:54.251Z,1432.00
2018-08-19T07:22:54.388Z,1436.00
2018-08-19T07:23:54.609Z,1436.00
2018-08-19T07:24:54.672Z,1436.00
2018-08-19T07:25:54.812Z,1440.00
2018-08-19T07:26:54.945Z,1444.00
2018-08-19T07:27:55.085Z,1440.00
2018-08-19T07:28:55.224Z,1440.00
2018-08-19T07:29:55.365Z,1444.00
2018-08-19T07:30:55.498Z,1444.00
2018-08-19T07:31:55.640Z,1448.00
2018-08-19T07:32:55.826Z,1456.00
2018-08-19T07:33:55.919Z,1460.00
2018-08-19T07:34:56.065Z,1456.00
2018-08-19T07:35:56.201Z,1464.00
2018-08-19T07:36:56.435Z,1472.00
2018-08-19T07:37:56.477Z,1476.00
2018-08-19T07:38:56.614Z,1472.00
2018-08-19T07:39:56.760Z,1476.00
2018-08-19T07:40:56.895Z,1480.00
2018-08-19T07:41:57.035Z,1476.00
2018-08-19T07:42:57.179Z,1488.00
2018-08-19T07:43:57.388Z,1488.00
2018-08-19T07:44:57.459Z,1492.00
2018-08-19T07:45:57.594Z,1492.00
2018-08-19T07:46:58.245Z,1500.00
2018-08-19T07:47:57.905Z,1492.00
2018-08-19T07:48:58.048Z,1500.00
2018-08-19T07:49:58.188Z,1504.00
2018-08-19T07:50:58.341Z,1504.00
2018-08-19T07:51:58.473Z,1508.00
2018-08-19T07:52:58.612Z,1520.00
2018-08-19T07:53:58.768Z,1516.00
2018-08-19T07:54:58.900Z,1524.00
2018-08-19T07:55:59.037Z,1524.00
2018-08-19T07:56:59.177Z,1532.00
2018-08-19T07:57:59.362Z,1532.00
2018-08-19T07:58:59.488Z,1540.00
2018-08-19T07:59:59.631Z,1540.00
2018-08-19T08:00:59.782Z,1544.00
2018-08-19T08:01:59.944Z,1548.00
2018-08-19T08:03:00.074Z,1552.00
2018-08-19T08:04:00.215Z,1552.00
2018-08-19T08:05:00.355Z,1556.00
2018-08-19T08:06:00.497Z,1560.00
2018-08-19T08:07:00.638Z,1564.00
2018-08-19T08:08:00.772Z,1568.00
2018-08-19T08:09:00.911Z,1572.00
2018-08-19T08:10:01.075Z,1576.00
2018-08-19T08:11:01.281Z,1580.00
2018-08-19T08:12:01.349Z,1588.00
2018-08-19T08:13:01.493Z,1592.00
2018-08-19T08:14:01.625Z,1600.00
2018-08-19T08:15:01.773Z,1600.00
2018-08-19T08:16:01.936Z,1608.00
2018-08-19T08:17:02.078Z,1616.00
2018-08-19T08:18:02.208Z,1620.00
2018-08-19T08:19:02.348Z,1628.00
2018-08-19T08:20:02.510Z,1632.00
2018-08-19T08:21:02.709Z,1636.00
2018-08-19T08:22:02.786Z,1644.00
2018-08-19T08:23:02.936Z,1652.00
2018-08-19T08:24:03.074Z,1648.00
2018-08-19T08:25:03.207Z,1664.00
2018-08-19T08:26:03.355Z,1664.00
2018-08-19T08:27:03.527Z,1668.00
2018-08-19T08:28:03.685Z,1676.00
2018-08-19T08:29:03.832Z,1676.00
2018-08-19T08:30:03.963Z,1680.00
2018-08-19T08:31:04.128Z,1688.00
2018-08-19T08:32:04.328Z,1692.00
2018-08-19T08:33:04.343Z,1700.00
2018-08-19T08:34:04.485Z,1708.00
2018-08-19T08:35:04.651Z,1716.00
2018-08-19T08:36:04.781Z,1716.00
2018-08-19T08:37:04.918Z,1720.00
2018-08-19T08:38:05.060Z,1720.00
2018-08-19T08:39:05.201Z,1724.00
2018-08-19T08:40:05.346Z,1728.00
2018-08-19T08:41:05.483Z,1736.00
2018-08-19T08:42:05.625Z,1740.00
2018-08-19T08:43:05.771Z,1748.00
2018-08-19T08:44:05.914Z,1756.00
2018-08-19T08:45:06.063Z,1756.00
2018-08-19T08:46:06.200Z,1764.00
2018-08-19T08:47:06.332Z,1764.00
2018-08-19T08:48:06.475Z,1772.00
2018-08-19T08:49:06.610Z,1780.00
2018-08-19T08:50:06.748Z,1780.00
2018-08-19T08:51:06.891Z,1784.00
2018-08-19T08:52:07.035Z,1788.00
2018-08-19T08:53:07.179Z,1812.00
2018-08-19T08:54:07.318Z,1808.00
2018-08-19T08:55:08.296Z,1812.00
2018-08-19T08:56:07.591Z,1816.00
2018-08-19T08:57:07.729Z,1820.00
2018-08-19T08:58:07.877Z,1828.00
2018-08-19T08:59:08.014Z,1832.00
2018-08-19T09:00:08.165Z,1836.00
2018-08-19T09:01:08.306Z,1844.00
2018-08-19T09:02:08.435Z,1844.00
2018-08-19T09:03:08.605Z,1856.00
2018-08-19T09:04:08.741Z,1872.00
2018-08-19T09:05:08.880Z,1868.00
2018-08-19T09:06:09.020Z,1872.00
2018-08-19T09:07:09.184Z,1876.00
2018-08-19T09:08:09.311Z,1884.00
2018-08-19T09:09:09.453Z,1888.00
2018-08-19T09:10:09.597Z,1896.00
2018-08-19T09:11:09.748Z,1912.00
2018-08-19T09:12:09.893Z,1924.00
2018-08-19T09:13:10.030Z,1920.00
2018-08-19T09:14:10.180Z,1932.00
2018-08-19T09:15:10.335Z,1944.00
2018-08-19T09:16:10.477Z,1948.00
2018-08-19T09:17:10.620Z,1964.00
2018-08-19T09:18:10.766Z,1968.00
2018-08-19T09:19:10.908Z,1972.00
2018-08-19T09:20:11.040Z,1988.00
2018-08-19T09:21:11.210Z,2000.00
2018-08-19T09:22:11.350Z,2000.00
2018-08-19T09:23:11.599Z,2012.00
2018-08-19T09:24:11.684Z,2020.00
2018-08-19T09:25:11.835Z,2032.00
2018-08-19T09:26:11.968Z,2040.00
2018-08-19T09:27:12.115Z,2044.00
2018-08-19T09:28:12.278Z,2052.00
2018-08-19T09:29:12.415Z,2060.00
2018-08-19T09:30:12.582Z,2072.00
2018-08-19T09:31:12.719Z,2080.00
2018-08-19T09:32:12.856Z,2096.00
2018-08-19T09:33:13.072Z,2096.00
2018-08-19T09:34:13.157Z,2112.00
2018-08-19T09:35:13.297Z,2116.00
2018-08-19T09:36:13.466Z,2128.00
2018-08-19T09:37:13.599Z,2148.00
2018-08-19T09:38:13.739Z,2152.00
2018-08-19T09:39:13.892Z,2156.00
2018-08-19T09:40:14.052Z,2168.00
2018-08-19T09:41:14.184Z,2192.00
2018-08-19T09:42:14.329Z,2196.00
2018-08-19T09:43:14.470Z,2200.00
2018-08-19T09:44:14.616Z,2212.00
2018-08-19T09:45:14.753Z,2224.00
2018-08-19T09:46:14.891Z,2232.00
2018-08-19T09:47:15.034Z,2240.00
2018-08-19T09:48:15.177Z,2240.00
2018-08-19T09:49:15.327Z,2252.00
2018-08-19T09:50:15.458Z,2272.00
2018-08-19T09:51:15.606Z,2284.00
2018-08-19T09:52:15.750Z,2300.00
2018-08-19T09:53:15.898Z,2304.00
2018-08-19T09:54:16.135Z,2320.00
2018-08-19T09:55:16.189Z,2352.00
2018-08-19T09:56:16.331Z,2340.00
2018-08-19T09:57:16.484Z,2368.00
2018-08-19T09:58:16.621Z,2404.00
2018-08-19T09:59:16.769Z,2404.00
2018-08-19T10:00:16.904Z,2444.00
2018-08-19T10:01:17.049Z,2468.00
2018-08-19T10:02:17.191Z,2464.00
2018-08-19T10:03:17.344Z,2500.00
2018-08-19T10:04:17.487Z,2512.00
2018-08-19T10:05:17.635Z,2536.00
2018-08-19T10:06:17.774Z,2652.00
2018-08-19T10:07:17.916Z,2544.00
2018-08-19T10:08:18.080Z,2580.00
2018-08-19T10:09:18.219Z,2588.00
2018-08-19T10:10:18.365Z,2604.00
2018-08-19T10:11:18.544Z,2724.00
2018-08-19T10:12:18.683Z,2632.00
2018-08-19T10:13:18.828Z,2676.00
2018-08-19T10:14:18.968Z,2668.00
2018-08-19T10:15:19.117Z,2704.00
2018-08-19T10:16:19.251Z,2712.00
2018-08-19T10:17:19.398Z,2728.00
2018-08-19T10:18:19.549Z,2756.00
2018-08-19T10:19:19.719Z,2812.00
2018-08-19T10:20:19.860Z,2848.00
2018-08-19T10:21:20.006Z,2864.00
2018-08-19T10:22:20.143Z,2844.00
2018-08-19T10:23:20.318Z,2836.00
2018-08-19T10:24:20.448Z,2888.00
2018-08-19T10:25:20.608Z,2872.00
2018-08-19T10:26:20.752Z,2880.00
2018-08-19T10:27:20.905Z,2916.00
2018-08-19T10:28:21.040Z,2900.00
2018-08-19T10:29:21.216Z,2892.00
2018-08-19T10:30:21.347Z,2844.00
2018-08-19T10:31:21.567Z,2852.00
2018-08-19T10:32:21.707Z,2976.00
2018-08-19T10:33:21.795Z,2968.00
2018-08-19T10:34:21.932Z,2940.00
2018-08-19T10:35:22.074Z,2988.00
2018-08-19T10:36:22.258Z,3040.00
2018-08-19T10:37:22.399Z,3240.00
2018-08-19T10:38:22.530Z,3152.00
2018-08-19T10:39:22.677Z,3168.00
2018-08-19T10:40:22.812Z,3128.00
2018-08-19T10:41:22.947Z,3248.00
2018-08-19T10:42:23.089Z,3108.00
2018-08-19T10:43:23.236Z,3136.00
2018-08-19T10:44:23.383Z,3224.00
2018-08-19T10:45:23.519Z,3188.00
2018-08-19T10:46:23.658Z,3188.00
2018-08-19T10:47:23.798Z,3212.00
2018-08-19T10:48:23.944Z,3240.00
2018-08-19T10:49:24.085Z,3268.00
2018-08-19T10:50:24.232Z,3324.00
2018-08-19T10:51:24.368Z,3256.00
2018-08-19T10:52:24.522Z,3440.00
2018-08-19T10:53:24.703Z,3424.00
2018-08-19T10:54:24.800Z,3272.00
2018-08-19T10:55:24.949Z,3816.00
2018-08-19T10:56:25.083Z,4276.00
2018-08-19T10:57:25.221Z,4560.00
2018-08-19T10:58:25.394Z,3532.00
2018-08-19T10:59:25.548Z,3856.00
2018-08-19T11:00:25.712Z,3712.00
2018-08-19T11:01:29.039Z,3816.00
2018-08-19T11:02:25.966Z,3748.00
2018-08-19T11:03:26.151Z,3772.00
2018-08-19T11:04:26.288Z,3780.00
2018-08-19T11:05:26.425Z,3880.00
2018-08-19T11:06:26.581Z,4044.00
2018-08-19T11:07:26.725Z,4060.00
2018-08-19T11:08:26.874Z,4272.00
2018-08-19T11:09:27.027Z,4376.00
2018-08-19T11:10:27.173Z,4540.00
2018-08-19T11:11:27.323Z,4580.00
2018-08-19T11:12:27.480Z,4628.00
2018-08-19T11:13:27.646Z,4596.00
2018-08-19T11:14:27.769Z,4744.00
2018-08-19T11:15:27.907Z,4628.00
2018-08-19T11:16:28.056Z,4816.00
2018-08-19T11:17:28.200Z,4668.00
2018-08-19T11:18:28.341Z,4800.00
2018-08-19T11:19:28.491Z,4736.00
2018-08-19T11:20:28.632Z,4804.00
2018-08-19T11:21:28.777Z,4856.00
2018-08-19T11:22:28.920Z,4900.00
2018-08-19T11:23:29.069Z,5012.00
2018-08-19T11:24:29.218Z,5260.00
2018-08-19T11:25:29.359Z,5384.00
2018-08-19T11:26:29.520Z,5284.00
2018-08-19T11:27:29.656Z,5460.00
2018-08-19T11:28:29.791Z,5524.00
2018-08-19T11:29:29.942Z,5656.00
2018-08-19T11:30:30.088Z,5652.00
2018-08-19T11:31:30.242Z,5352.00
2018-08-19T11:32:30.366Z,5556.00
2018-08-19T11:33:30.518Z,5948.00
2018-08-19T11:34:30.705Z,5984.00
2018-08-19T11:35:30.839Z,6076.00
2018-08-19T11:36:30.988Z,5916.00
2018-08-19T11:37:31.129Z,6240.00
2018-08-19T11:38:31.301Z,6296.00
2018-08-19T11:39:31.452Z,5820.00
2018-08-19T11:40:31.593Z,6380.00
2018-08-19T11:41:31.740Z,6420.00
2018-08-19T11:42:31.917Z,6404.00
2018-08-19T11:43:32.062Z,6532.00
2018-08-19T11:44:32.225Z,6496.00
2018-08-19T11:45:32.373Z,6536.00
2018-08-19T11:46:32.517Z,6576.00
2018-08-19T11:47:32.664Z,6548.00
2018-08-19T11:48:32.805Z,6620.00
2018-08-19T11:49:32.945Z,6600.00
2018-08-19T11:50:33.117Z,6648.00
2018-08-19T11:51:33.256Z,6616.00
2018-08-19T11:52:33.401Z,6568.00
2018-08-19T11:53:33.613Z,6552.00
2018-08-19T11:54:33.646Z,6580.00
2018-08-19T11:55:33.783Z,6720.00
2018-08-19T11:56:33.931Z,6596.00
2018-08-19T11:57:34.075Z,6584.00
2018-08-19T11:58:34.233Z,6580.00
2018-08-19T11:59:34.492Z,6612.00
2018-08-19T12:00:34.509Z,6608.00
2018-08-19T12:01:34.658Z,6680.00
2018-08-19T12:02:34.802Z,6748.00
2018-08-19T12:03:34.956Z,6688.00
2018-08-19T12:04:35.099Z,6728.00
2018-08-19T12:05:35.250Z,6756.00
2018-08-19T12:06:35.391Z,6792.00
2018-08-19T12:07:35.537Z,6848.00
2018-08-19T12:08:35.682Z,6884.00
2018-08-19T12:09:35.829Z,6904.00
2018-08-19T12:10:35.986Z,6944.00
2018-08-19T12:11:36.171Z,6904.00
2018-08-19T12:12:36.310Z,6904.00
2018-08-19T12:13:36.469Z,6896.00
2018-08-19T12:14:36.630Z,6892.00
2018-08-19T12:15:36.777Z,6912.00
2018-08-19T12:16:36.922Z,6920.00
2018-08-19T12:17:37.082Z,6968.00
2018-08-19T12:18:37.222Z,6912.00
2018-08-19T12:19:37.372Z,6944.00
2018-08-19T12:20:37.535Z,7084.00
2018-08-19T12:21:37.728Z,7044.00
2018-08-19T12:22:37.866Z,6948.00
2018-08-19T12:23:38.050Z,6948.00
2018-08-19T12:24:38.199Z,6988.00
2018-08-19T12:25:38.365Z,6964.00
2018-08-19T12:26:38.503Z,7004.00
2018-08-19T12:27:38.736Z,6976.00
2018-08-19T12:28:38.802Z,6940.00
2018-08-19T12:29:38.980Z,6940.00
2018-08-19T12:30:39.128Z,6948.00
2018-08-19T12:31:39.270Z,6900.00
2018-08-19T12:32:39.425Z,6904.00